Time;durP1;ratioP1;P1;durP2;ratioP2;P2;SDS_P1;SDS_P2;PMS_P1;PMS_P2;Temp;Humidity;BMP_temperature;BMP_pressure;BME280_temperature;BME280_humidity;BME280_pressure;Samples;Min_cycle;Max_cycle;Signal;HPM_P1;HPM_P2
2022/03/11 00:02:25;;;;;;;20.30;10.02;;;11.80;99.10;;;;;;5005142;28;20042;-60
2022/03/11 00:04:52;;;;;;;18.27;9.77;;;11.80;99.10;;;;;;5002418;28;20069;-60
2022/03/11 00:07:18;;;;;;;18.90;10.00;;;11.70;99.10;;;;;;5013070;28;20045;-61
2022/03/11 00:09:45;;;;;;;17.10;9.55;;;11.80;99.10;;;;;;4998871;28;20053;-60
2022/03/11 00:12:12;;;;;;;17.17;9.82;;;11.80;99.10;;;;;;5015453;28;20034;-61
2022/03/11 00:14:39;;;;;;;18.90;10.57;;;11.80;99.10;;;;;;5015307;28;20058;-61
2022/03/11 00:17:06;;;;;;;17.63;10.07;;;11.80;99.00;;;;;;5015269;28;20058;-59
2022/03/11 00:19:33;;;;;;;20.23;9.73;;;11.80;99.00;;;;;;4982679;28;20061;-60
2022/03/11 00:22:00;;;;;;;16.05;9.27;;;11.80;99.00;;;;;;5014701;28;20073;-60
2022/03/11 00:24:27;;;;;;;17.63;10.38;;;11.80;99.00;;;;;;5002105;28;20050;-59
2022/03/11 00:26:54;;;;;;;18.02;9.88;;;11.80;99.00;;;;;;5010940;28;20042;-60
2022/03/11 00:29:21;;;;;;;16.45;8.90;;;11.80;99.00;;;;;;4967525;28;20035;-60
2022/03/11 00:31:48;;;;;;;17.73;8.93;;;11.80;98.90;;;;;;5013769;28;20050;-61
2022/03/11 00:34:15;;;;;;;15.70;9.23;;;11.80;98.90;;;;;;5018054;28;20034;-60
2022/03/11 00:36:43;;;;;;;21.38;9.70;;;11.80;98.90;;;;;;5001150;28;20122;-60
2022/03/11 00:39:10;;;;;;;19.95;10.20;;;11.80;99.20;;;;;;5001364;28;20057;-61
2022/03/11 00:41:37;;;;;;;18.75;10.65;;;11.80;98.90;;;;;;5017883;28;20030;-60
2022/03/11 00:44:05;;;;;;;18.33;10.68;;;11.80;98.80;;;;;;5018324;28;20050;-60
2022/03/11 00:46:31;;;;;;;13.70;9.18;;;11.80;98.80;;;;;;5018316;28;20042;-60
2022/03/11 00:48:58;;;;;;;18.73;10.18;;;11.80;98.80;;;;;;5002142;28;20098;-60
2022/03/11 00:51:25;;;;;;;18.58;11.07;;;11.80;98.70;;;;;;5017885;28;20034;-61
2022/03/11 00:53:52;;;;;;;20.33;10.07;;;11.80;98.70;;;;;;5017925;28;20038;-60
2022/03/11 00:56:19;;;;;;;18.15;10.75;;;11.80;98.70;;;;;;5017818;28;20030;-61
2022/03/11 00:58:46;;;;;;;16.75;9.43;;;11.80;98.70;;;;;;4995919;28;20031;-59
2022/03/11 01:01:13;;;;;;;20.85;10.63;;;11.80;98.70;;;;;;5017867;28;20121;-60
2022/03/11 01:03:40;;;;;;;18.95;10.95;;;11.70;98.70;;;;;;5018134;28;20046;-61
2022/03/11 01:06:06;;;;;;;17.95;12.15;;;11.70;98.70;;;;;;5001198;28;20034;-61
2022/03/11 01:08:33;;;;;;;17.02;10.82;;;11.70;98.70;;;;;;5017609;28;20027;-60
2022/03/11 01:11:00;;;;;;;18.88;9.73;;;11.70;98.70;;;;;;5018198;28;20053;-62
2022/03/11 01:13:27;;;;;;;20.25;11.05;;;11.80;98.70;;;;;;5017480;28;20065;-61
2022/03/11 01:15:54;;;;;;;18.42;10.13;;;11.80;98.60;;;;;;4655892;28;10000318;-61
2022/03/11 01:18:21;;;;;;;19.02;11.00;;;11.70;98.60;;;;;;5016254;28;20035;-60
2022/03/11 01:20:48;;;;;;;19.25;10.10;;;11.70;98.70;;;;;;5016025;28;20038;-61
2022/03/11 01:23:15;;;;;;;27.08;12.45;;;11.70;98.70;;;;;;5014721;28;20030;-60
2022/03/11 01:25:42;;;;;;;17.88;10.88;;;11.70;98.70;;;;;;5012902;28;20030;-60
2022/03/11 01:28:09;;;;;;;20.90;11.38;;;11.70;98.70;;;;;;4999867;28;20037;-62
2022/03/11 01:30:36;;;;;;;18.13;9.80;;;11.70;98.70;;;;;;5017883;28;20085;-61
2022/03/11 01:33:02;;;;;;;17.00;10.48;;;11.70;98.70;;;;;;5003233;28;20034;-62
2022/03/11 01:35:29;;;;;;;20.38;10.70;;;11.70;98.70;;;;;;5000790;28;20038;-62
2022/03/11 01:37:56;;;;;;;15.48;9.80;;;11.70;98.70;;;;;;5017292;28;20041;-61
2022/03/11 01:40:24;;;;;;;18.08;10.40;;;11.70;98.70;;;;;;5009986;28;20366;-60
2022/03/11 01:42:50;;;;;;;18.77;10.07;;;11.70;98.70;;;;;;5017193;28;20058;-61
2022/03/11 01:45:17;;;;;;;18.38;12.02;;;11.70;98.70;;;;;;5001004;28;20069;-61
2022/03/11 01:47:44;;;;;;;21.58;10.63;;;11.70;98.70;;;;;;5001403;28;20050;-60
2022/03/11 01:50:11;;;;;;;21.05;10.60;;;11.70;98.70;;;;;;5017788;28;20039;-61
2022/03/11 01:52:38;;;;;;;19.63;11.98;;;11.70;98.70;;;;;;5017762;28;20038;-60
2022/03/11 01:55:05;;;;;;;18.63;11.75;;;11.70;98.70;;;;;;5000177;28;20042;-61
2022/03/11 01:57:36;;;;;;;20.92;11.93;;;11.70;98.80;;;;;;5017696;28;20061;-61
2022/03/11 02:00:07;;;;;;;23.23;11.88;;;11.70;98.80;;;;;;5017626;28;20030;-61
2022/03/11 02:02:34;;;;;;;17.33;10.98;;;11.70;98.90;;;;;;4997847;28;20031;-61
2022/03/11 02:05:02;;;;;;;18.35;10.43;;;11.60;98.90;;;;;;5007488;28;20103;-61
2022/03/11 02:07:28;;;;;;;23.60;10.65;;;11.70;98.90;;;;;;5014788;28;20030;-61
2022/03/11 02:09:55;;;;;;;20.85;10.77;;;11.60;99.00;;;;;;5006040;28;20054;-59
2022/03/11 02:12:34;;;;;;;22.63;10.65;;;11.60;99.00;;;;;;5006330;28;20035;-61
2022/03/11 02:15:05;;;;;;;21.08;12.38;;;11.70;99.20;;;;;;5010542;28;20034;-61
2022/03/11 02:17:31;;;;;;;18.38;10.77;;;11.60;99.10;;;;;;5017634;28;20054;-60
2022/03/11 02:19:58;;;;;;;19.25;10.63;;;11.60;99.10;;;;;;5016767;28;20062;-61
2022/03/11 02:22:25;;;;;;;18.60;11.50;;;11.60;99.10;;;;;;5016624;28;20039;-61
2022/03/11 02:24:52;;;;;;;21.30;11.05;;;11.60;99.10;;;;;;5016871;28;20039;-60
2022/03/11 02:27:19;;;;;;;20.13;10.50;;;11.60;99.10;;;;;;5006460;28;20035;-61
2022/03/11 02:29:46;;;;;;;16.02;10.48;;;11.60;99.10;;;;;;5004275;28;20030;-60
2022/03/11 02:32:13;;;;;;;22.45;11.48;;;11.60;99.20;;;;;;5000406;28;20039;-60
2022/03/11 02:34:40;;;;;;;23.38;12.43;;;11.60;99.20;;;;;;5016457;28;20069;-60
2022/03/11 02:37:09;;;;;;;19.20;11.07;;;11.60;99.20;;;;;;5005671;28;20034;-61
2022/03/11 02:39:36;;;;;;;22.38;12.10;;;11.50;99.20;;;;;;5000030;28;20046;-59
2022/03/11 02:42:05;;;;;;;20.90;11.23;;;11.60;99.30;;;;;;5016893;28;20054;-60
2022/03/11 02:44:32;;;;;;;19.90;11.32;;;11.50;99.40;;;;;;5016174;28;20026;-59
2022/03/11 02:46:59;;;;;;;21.55;11.00;;;11.50;99.40;;;;;;5016369;28;20027;-62
2022/03/11 02:49:29;;;;;;;17.75;10.20;;;11.50;99.40;;;;;;5016841;28;20061;-64
2022/03/11 02:51:57;;;;;;;17.63;9.73;;;11.50;99.50;;;;;;5015789;28;20042;-61
2022/03/11 02:54:24;;;;;;;19.38;11.35;;;11.50;99.40;;;;;;5016407;28;20034;-62
2022/03/11 02:56:51;;;;;;;20.63;10.98;;;11.50;99.50;;;;;;5016116;28;20090;-61
2022/03/11 02:59:18;;;;;;;19.98;11.82;;;11.60;99.60;;;;;;5004185;28;20058;-60
2022/03/11 03:01:45;;;;;;;18.30;10.27;;;11.50;99.60;;;;;;5016792;28;20038;-60
2022/03/11 03:04:13;;;;;;;15.30;10.20;;;11.40;99.60;;;;;;5016542;28;20061;-59
2022/03/11 03:06:40;;;;;;;17.67;9.32;;;11.40;99.60;;;;;;5006179;28;20082;-60
2022/03/11 03:09:07;;;;;;;23.88;10.75;;;11.40;99.70;;;;;;4994234;28;20026;-61
2022/03/11 03:11:34;;;;;;;22.95;10.20;;;11.40;99.60;;;;;;5015999;28;20031;-60
2022/03/11 03:14:01;;;;;;;19.65;10.70;;;11.30;99.60;;;;;;4991921;28;20042;-61
2022/03/11 03:16:28;;;;;;;20.58;9.93;;;11.20;99.60;;;;;;5016293;28;20031;-60
2022/03/11 03:18:55;;;;;;;20.45;11.70;;;11.20;99.70;;;;;;5016445;28;20035;-60
2022/03/11 03:21:22;;;;;;;19.67;11.52;;;11.20;99.80;;;;;;5006178;28;20042;-60
2022/03/11 03:23:49;;;;;;;18.92;11.30;;;11.10;99.90;;;;;;5016240;28;20062;-61
2022/03/11 03:26:16;;;;;;;15.60;10.18;;;11.00;99.90;;;;;;5015485;28;20037;-59
2022/03/11 03:28:42;;;;;;;16.13;10.05;;;11.00;99.90;;;;;;5016166;28;20061;-60
2022/03/11 03:31:09;;;;;;;25.98;11.63;;;11.00;99.90;;;;;;5016094;28;20034;-61
2022/03/11 03:33:36;;;;;;;18.05;11.23;;;11.00;99.90;;;;;;5015650;28;20038;-59
2022/03/11 03:36:03;;;;;;;24.70;12.63;;;10.90;99.90;;;;;;5016125;28;20026;-59
2022/03/11 03:38:30;;;;;;;18.80;11.68;;;10.90;99.90;;;;;;5015816;28;20030;-60
2022/03/11 03:40:56;;;;;;;17.63;10.05;;;10.80;99.90;;;;;;4999475;28;20038;-60
2022/03/11 03:43:23;;;;;;;29.88;11.82;;;10.80;99.90;;;;;;4999120;28;20081;-61
2022/03/11 03:45:50;;;;;;;20.13;11.88;;;10.80;99.90;;;;;;5015950;28;20026;-60
2022/03/11 03:48:17;;;;;;;19.45;11.85;;;10.70;99.90;;;;;;5016169;28;20026;-61
2022/03/11 03:50:43;;;;;;;22.48;11.48;;;10.70;99.90;;;;;;5016280;28;20030;-60
2022/03/11 03:53:10;;;;;;;20.77;11.10;;;10.70;99.90;;;;;;5014304;28;20031;-60
2022/03/11 03:55:37;;;;;;;19.60;11.35;;;10.60;99.90;;;;;;5010310;28;20035;-60
2022/03/11 03:58:04;;;;;;;22.25;12.00;;;10.60;99.90;;;;;;5001001;28;20030;-60
2022/03/11 04:00:31;;;;;;;27.25;12.10;;;10.60;99.90;;;;;;5008474;28;20034;-61
2022/03/11 04:02:58;;;;;;;22.05;11.30;;;10.50;99.90;;;;;;4990056;28;20082;-61
2022/03/11 04:05:25;;;;;;;17.77;12.32;;;10.50;99.90;;;;;;5019478;28;20308;-61
2022/03/11 04:07:52;;;;;;;20.00;12.13;;;10.50;99.90;;;;;;5002266;28;20034;-60
2022/03/11 04:10:19;;;;;;;22.30;12.43;;;10.40;99.90;;;;;;5019585;28;20081;-60
2022/03/11 04:12:46;;;;;;;26.40;12.55;;;10.30;99.90;;;;;;5019294;28;20081;-61
2022/03/11 04:15:12;;;;;;;22.23;11.13;;;10.30;99.90;;;;;;5002803;28;20053;-60
2022/03/11 04:17:39;;;;;;;20.50;12.35;;;10.30;99.90;;;;;;5019323;28;20038;-60
2022/03/11 04:20:07;;;;;;;23.05;13.80;;;10.30;99.90;;;;;;5019243;28;20038;-60
2022/03/11 04:22:40;;;;;;;23.58;10.60;;;10.30;99.90;;;;;;5001806;28;20046;-60
2022/03/11 04:25:11;;;;;;;18.20;11.65;;;10.30;99.90;;;;;;5002382;28;20038;-61
2022/03/11 04:27:38;;;;;;;20.88;10.45;;;10.30;99.90;;;;;;5018811;28;20061;-60
2022/03/11 04:30:05;;;;;;;17.50;11.57;;;10.30;99.90;;;;;;5018941;28;20069;-60
2022/03/11 04:32:32;;;;;;;22.70;10.48;;;10.20;99.90;;;;;;5019144;28;20030;-59
2022/03/11 04:34:59;;;;;;;22.60;11.27;;;10.20;99.90;;;;;;5018546;28;20050;-59
2022/03/11 04:37:25;;;;;;;19.77;11.45;;;10.20;99.90;;;;;;5019010;28;20054;-59
2022/03/11 04:39:52;;;;;;;21.10;12.27;;;10.20;99.90;;;;;;5018534;28;20031;-59
2022/03/11 04:42:19;;;;;;;21.65;12.00;;;10.10;99.90;;;;;;5018247;28;20057;-60
2022/03/11 04:44:46;;;;;;;23.75;12.13;;;10.10;99.90;;;;;;5018631;28;20057;-59
2022/03/11 04:47:12;;;;;;;20.90;12.25;;;10.10;99.90;;;;;;5011160;28;20034;-60
2022/03/11 04:49:39;;;;;;;24.33;12.73;;;10.00;99.90;;;;;;4670053;28;10000656;-60
2022/03/11 04:52:07;;;;;;;22.08;11.75;;;10.00;99.90;;;;;;4999646;28;20038;-60
2022/03/11 04:54:34;;;;;;;22.95;12.65;;;10.00;99.90;;;;;;5015952;28;20035;-60
2022/03/11 04:57:00;;;;;;;23.90;13.00;;;9.90;99.90;;;;;;5000048;28;20126;-60
2022/03/11 04:59:27;;;;;;;22.58;11.55;;;9.90;99.90;;;;;;5016804;28;20034;-60
2022/03/11 05:01:54;;;;;;;20.85;12.20;;;9.90;99.90;;;;;;5016584;28;20085;-59
2022/03/11 05:04:21;;;;;;;20.55;11.98;;;9.80;99.90;;;;;;4999836;28;20042;-59
2022/03/11 05:06:48;;;;;;;23.38;12.35;;;9.80;99.90;;;;;;5005082;28;20026;-59
2022/03/11 05:09:14;;;;;;;21.52;12.07;;;9.80;99.90;;;;;;5014641;28;20030;-61
2022/03/11 05:11:41;;;;;;;22.25;11.40;;;9.70;99.90;;;;;;5016193;28;20047;-59
2022/03/11 05:14:08;;;;;;;20.10;12.55;;;9.70;99.90;;;;;;5016328;28;20034;-60
2022/03/11 05:16:35;;;;;;;18.67;11.55;;;9.70;99.90;;;;;;5016445;28;20035;-60
2022/03/11 05:19:02;;;;;;;18.60;11.98;;;9.70;99.90;;;;;;5016169;28;20042;-61
2022/03/11 05:21:28;;;;;;;21.98;13.32;;;9.70;99.90;;;;;;4998297;28;20049;-61
2022/03/11 05:23:55;;;;;;;24.85;12.88;;;9.70;99.90;;;;;;5016073;28;20035;-59
2022/03/11 05:26:25;;;;;;;25.60;12.20;;;9.60;99.90;;;;;;4999121;28;20065;-59
2022/03/11 05:28:57;;;;;;;21.48;11.35;;;9.70;99.90;;;;;;5016212;28;20035;-59
2022/03/11 05:31:25;;;;;;;25.20;13.38;;;9.70;99.90;;;;;;5015943;28;20109;-60
2022/03/11 05:33:52;;;;;;;22.92;11.95;;;9.70;99.90;;;;;;5015996;28;20045;-60
2022/03/11 05:36:19;;;;;;;26.55;13.48;;;9.70;99.90;;;;;;4998805;28;20041;-60
2022/03/11 05:38:46;;;;;;;26.27;13.85;;;9.70;99.90;;;;;;5013623;28;20110;-61
2022/03/11 05:41:13;;;;;;;20.13;12.55;;;9.70;99.90;;;;;;5016044;28;20030;-61
2022/03/11 05:43:39;;;;;;;20.70;11.38;;;9.70;99.90;;;;;;5015978;28;20031;-61
2022/03/11 05:46:06;;;;;;;25.17;13.07;;;9.60;99.90;;;;;;5014767;28;20053;-61
2022/03/11 05:48:33;;;;;;;21.67;12.63;;;9.60;99.90;;;;;;5014780;28;20050;-61
2022/03/11 05:51:05;;;;;;;22.92;12.73;;;9.60;99.90;;;;;;5015471;28;20043;-61
2022/03/11 05:53:32;;;;;;;21.67;12.30;;;9.60;99.90;;;;;;5011937;28;20061;-61
2022/03/11 05:55:59;;;;;;;30.00;13.60;;;9.60;99.90;;;;;;5015654;28;20034;-61
2022/03/11 05:58:26;;;;;;;25.98;12.65;;;9.60;99.90;;;;;;5009752;28;20048;-62
2022/03/11 06:00:52;;;;;;;26.42;12.98;;;9.60;99.90;;;;;;4998393;28;20078;-60
2022/03/11 06:03:20;;;;;;;21.77;12.93;;;9.60;99.90;;;;;;4998423;28;20065;-58
2022/03/11 06:05:48;;;;;;;25.25;13.48;;;9.60;99.90;;;;;;5007738;28;20042;-59
2022/03/11 06:08:15;;;;;;;19.98;12.25;;;9.70;99.90;;;;;;4980395;28;20081;-61
2022/03/11 06:10:42;;;;;;;22.13;12.85;;;9.70;99.90;;;;;;4998396;28;20038;-59
2022/03/11 06:13:09;;;;;;;22.02;13.27;;;9.70;99.90;;;;;;5014672;28;20102;-58
2022/03/11 06:15:36;;;;;;;23.25;13.25;;;9.70;99.90;;;;;;5015168;28;20077;-60
2022/03/11 06:18:03;;;;;;;19.38;11.85;;;9.70;99.90;;;;;;5014457;28;20030;-61
2022/03/11 06:20:32;;;;;;;30.00;16.45;;;9.70;99.90;;;;;;5014346;28;20069;-62
2022/03/11 06:22:59;;;;;;;21.60;11.98;;;9.70;99.90;;;;;;5013994;28;20061;-60
2022/03/11 06:25:26;;;;;;;26.65;12.60;;;9.70;99.90;;;;;;4997896;28;20042;-60
2022/03/11 06:27:53;;;;;;;27.73;14.23;;;9.70;99.90;;;;;;5014503;28;20057;-60
2022/03/11 06:30:20;;;;;;;22.15;11.90;;;9.70;99.90;;;;;;5014965;28;20046;-60
2022/03/11 06:32:48;;;;;;;20.75;12.18;;;9.60;99.90;;;;;;5014358;28;20046;-60
2022/03/11 06:35:15;;;;;;;23.92;13.15;;;9.60;99.90;;;;;;5000445;28;20070;-59
2022/03/11 06:37:43;;;;;;;25.38;13.25;;;9.60;99.90;;;;;;5014211;28;20040;-59
2022/03/11 06:40:11;;;;;;;26.33;14.68;;;9.60;99.90;;;;;;5000543;28;20034;-59
2022/03/11 06:42:39;;;;;;;22.85;12.25;;;9.60;99.90;;;;;;4997482;28;20035;-61
2022/03/11 06:45:06;;;;;;;29.83;12.65;;;9.60;99.90;;;;;;5013890;28;20050;-60
2022/03/11 06:47:34;;;;;;;22.73;11.13;;;9.60;99.90;;;;;;5014596;28;20065;-60
2022/03/11 06:50:01;;;;;;;24.27;13.32;;;9.60;99.90;;;;;;5013434;28;20057;-61
2022/03/11 06:52:28;;;;;;;21.50;12.88;;;9.60;99.90;;;;;;5000812;28;20052;-60
2022/03/11 06:54:54;;;;;;;26.77;12.43;;;9.50;99.90;;;;;;5014113;28;20030;-60
2022/03/11 06:57:21;;;;;;;22.45;13.02;;;9.50;99.90;;;;;;5000518;28;20040;-60
2022/03/11 06:59:48;;;;;;;25.88;13.40;;;9.50;99.90;;;;;;5014305;28;20062;-60
2022/03/11 07:02:15;;;;;;;21.90;11.82;;;9.50;99.90;;;;;;4982298;28;20043;-61
2022/03/11 07:04:43;;;;;;;23.48;12.45;;;9.60;99.90;;;;;;5010699;28;20026;-60
2022/03/11 07:07:09;;;;;;;19.13;12.40;;;9.60;99.90;;;;;;5016703;28;20038;-60
2022/03/11 07:09:36;;;;;;;25.00;14.70;;;9.70;99.90;;;;;;5016334;28;20035;-60
2022/03/11 07:12:03;;;;;;;26.58;12.30;;;9.60;99.90;;;;;;5016499;28;20034;-61
2022/03/11 07:14:33;;;;;;;26.42;12.38;;;9.70;99.90;;;;;;5014184;28;20045;-61
2022/03/11 07:16:59;;;;;;;22.35;11.93;;;9.70;99.90;;;;;;5016801;28;20054;-61
2022/03/11 07:19:29;;;;;;;19.75;11.18;;;9.80;99.90;;;;;;4999613;28;20038;-60
2022/03/11 07:21:57;;;;;;;21.60;11.95;;;9.80;99.90;;;;;;4994443;28;20046;-61
2022/03/11 07:24:24;;;;;;;25.75;12.15;;;9.80;99.90;;;;;;5016291;28;20062;-61
2022/03/11 07:26:51;;;;;;;22.30;11.90;;;9.80;99.90;;;;;;4999735;28;20030;-61
2022/03/11 07:29:18;;;;;;;19.40;11.70;;;9.80;99.90;;;;;;5016533;28;20089;-61
2022/03/11 07:31:45;;;;;;;21.45;10.73;;;9.80;99.90;;;;;;5016390;28;20082;-62
2022/03/11 07:34:12;;;;;;;21.98;11.32;;;9.90;99.90;;;;;;5019328;28;20034;-61
2022/03/11 07:36:39;;;;;;;23.42;10.90;;;9.90;99.90;;;;;;4990348;28;20073;-60
2022/03/11 07:39:07;;;;;;;23.50;11.07;;;9.90;99.90;;;;;;5019218;28;20069;-61
2022/03/11 07:41:34;;;;;;;20.60;10.88;;;10.00;99.90;;;;;;5018379;28;20061;-60
2022/03/11 07:44:01;;;;;;;19.65;10.63;;;10.00;99.90;;;;;;4995358;28;20027;-60
2022/03/11 07:46:41;;;;;;;17.33;10.02;;;10.10;99.90;;;;;;4999557;28;20065;-60
2022/03/11 07:49:08;;;;;;;17.55;10.48;;;10.10;99.90;;;;;;4985134;28;20070;-60
2022/03/11 07:51:35;;;;;;;15.75;9.93;;;10.20;99.90;;;;;;5015303;28;20038;-60
2022/03/11 07:54:02;;;;;;;18.10;10.05;;;10.30;99.90;;;;;;4982998;28;20027;-60
2022/03/11 07:56:31;;;;;;;19.95;9.90;;;10.30;99.90;;;;;;5013826;28;20073;-61
2022/03/11 07:58:59;;;;;;;17.45;10.25;;;10.40;99.90;;;;;;5018009;28;20065;-59
2022/03/11 08:01:26;;;;;;;14.73;9.27;;;10.40;99.90;;;;;;5016848;28;20067;-60
2022/03/11 08:03:54;;;;;;;15.00;9.25;;;10.50;99.90;;;;;;5017266;28;20054;-60
2022/03/11 08:06:20;;;;;;;26.35;9.05;;;10.50;99.90;;;;;;5013279;28;20034;-59
2022/03/11 08:08:47;;;;;;;16.45;9.95;;;10.50;99.90;;;;;;5017284;28;20034;-60
2022/03/11 08:11:14;;;;;;;18.38;8.80;;;10.60;99.90;;;;;;4983680;28;20038;-61
2022/03/11 08:13:41;;;;;;;17.98;9.98;;;10.60;99.90;;;;;;5016817;28;20029;-62
2022/03/11 08:16:11;;;;;;;19.83;8.95;;;10.60;99.90;;;;;;5018285;28;20037;-60
2022/03/11 08:18:38;;;;;;;14.43;8.43;;;10.70;99.90;;;;;;5001932;28;20063;-60
2022/03/11 08:21:05;;;;;;;13.82;8.80;;;10.70;99.90;;;;;;5018669;28;20042;-61
2022/03/11 08:23:33;;;;;;;15.82;9.13;;;10.70;99.90;;;;;;5017700;28;20045;-59
2022/03/11 08:26:00;;;;;;;19.38;9.35;;;10.70;99.90;;;;;;5019080;28;20044;-60
2022/03/11 08:28:26;;;;;;;19.90;8.73;;;10.80;99.90;;;;;;5016454;28;20162;-60
2022/03/11 08:30:54;;;;;;;14.65;9.13;;;10.90;99.90;;;;;;5018915;28;20057;-61
2022/03/11 08:33:22;;;;;;;17.08;9.38;;;10.90;99.90;;;;;;5001489;28;20050;-58
2022/03/11 08:36:09;;;;;;;17.35;8.73;;;10.90;99.90;;;;;;5030920;28;20078;-59
2022/03/11 08:38:39;;;;;;;19.23;8.73;;;10.90;99.90;;;;;;5017321;28;20050;-60
2022/03/11 08:41:09;;;;;;;19.27;8.43;;;11.10;99.90;;;;;;5033889;28;20329;-62
2022/03/11 08:43:38;;;;;;;16.55;9.05;;;11.10;99.90;;;;;;5022892;28;20105;-62
2022/03/11 08:46:07;;;;;;;17.48;9.15;;;11.10;99.90;;;;;;4996661;28;20034;-60
2022/03/11 08:48:34;;;;;;;13.38;8.63;;;11.20;99.90;;;;;;4999073;28;20031;-60
2022/03/11 08:51:02;;;;;;;19.80;9.38;;;11.30;99.90;;;;;;5001845;28;20026;-61
2022/03/11 08:53:30;;;;;;;14.32;8.18;;;11.30;99.90;;;;;;5027117;28;20030;-60
2022/03/11 08:55:56;;;;;;;16.52;8.00;;;11.40;99.90;;;;;;5018179;28;20038;-59
2022/03/11 08:58:23;;;;;;;15.43;8.63;;;11.50;99.90;;;;;;5006329;28;20069;-60
2022/03/11 09:00:50;;;;;;;14.57;7.88;;;11.50;99.90;;;;;;5014640;28;20026;-61
2022/03/11 09:03:17;;;;;;;14.18;7.85;;;11.60;99.90;;;;;;5006510;28;20408;-61
2022/03/11 09:05:44;;;;;;;15.30;8.02;;;11.70;99.90;;;;;;5017668;28;20042;-61
2022/03/11 09:08:11;;;;;;;13.93;7.18;;;11.80;99.90;;;;;;5030694;28;20030;-61
2022/03/11 09:10:38;;;;;;;13.25;6.18;;;11.90;99.90;;;;;;5001608;28;20050;-61
2022/03/11 09:13:08;;;;;;;13.40;6.50;;;12.10;99.90;;;;;;5017893;28;20049;-60
2022/03/11 09:15:35;;;;;;;12.68;6.57;;;12.20;99.90;;;;;;5021339;28;20097;-60
2022/03/11 09:18:08;;;;;;;12.90;5.95;;;12.30;99.90;;;;;;5030944;28;20131;-60
2022/03/11 09:20:37;;;;;;;13.02;7.05;;;12.30;99.90;;;;;;5017238;28;20073;-61
2022/03/11 09:23:06;;;;;;;10.57;6.13;;;12.40;99.90;;;;;;5009375;28;20052;-62
2022/03/11 09:25:33;;;;;;;8.02;5.10;;;12.40;99.90;;;;;;5003780;28;20034;-60
2022/03/11 09:28:05;;;;;;;10.48;5.65;;;12.50;99.90;;;;;;5015557;28;20045;-60
2022/03/11 09:30:31;;;;;;;10.38;5.57;;;12.60;99.90;;;;;;5014152;28;20062;-61
2022/03/11 09:32:58;;;;;;;9.00;5.05;;;12.60;99.90;;;;;;5015909;28;20105;-61
2022/03/11 09:35:25;;;;;;;14.85;5.28;;;12.60;99.70;;;;;;4979855;28;20039;-61
2022/03/11 09:37:52;;;;;;;9.80;4.97;;;12.70;99.90;;;;;;5016627;28;20061;-60
2022/03/11 09:40:19;;;;;;;9.38;4.70;;;12.70;99.60;;;;;;5016800;28;20040;-61
2022/03/11 09:42:46;;;;;;;7.93;4.80;;;12.70;99.60;;;;;;5016073;28;20042;-60
2022/03/11 09:45:13;;;;;;;9.85;4.82;;;12.70;99.70;;;;;;5000070;28;20022;-61
2022/03/11 09:47:41;;;;;;;7.15;4.45;;;12.70;99.50;;;;;;5017560;28;20046;-61
2022/03/11 09:50:08;;;;;;;8.35;4.82;;;12.80;99.30;;;;;;5010600;28;20038;-61
2022/03/11 09:52:35;;;;;;;8.98;4.82;;;12.80;99.20;;;;;;5022038;28;20042;-62
2022/03/11 09:55:07;;;;;;;10.85;4.45;;;12.90;99.20;;;;;;5016237;28;20058;-60
2022/03/11 09:57:34;;;;;;;11.23;4.78;;;12.90;99.30;;;;;;5017411;28;20034;-61
2022/03/11 10:00:01;;;;;;;16.88;5.88;;;12.90;98.80;;;;;;4999044;28;20041;-59
2022/03/11 10:02:27;;;;;;;11.50;5.32;;;12.80;99.00;;;;;;5017415;28;20114;-61
2022/03/11 10:04:57;;;;;;;9.65;4.65;;;12.90;98.90;;;;;;5016730;28;20040;-61
2022/03/11 10:07:44;;;;;;;9.32;4.47;;;12.90;99.30;;;;;;5017184;28;20046;-60
2022/03/11 10:10:16;;;;;;;11.07;5.07;;;12.90;99.10;;;;;;5000013;28;20057;-61
2022/03/11 10:13:03;;;;;;;12.43;5.45;;;13.00;98.80;;;;;;5016718;28;20036;-59
2022/03/11 10:15:29;;;;;;;8.43;4.65;;;12.90;98.90;;;;;;5016597;28;20057;-60
2022/03/11 10:17:57;;;;;;;11.20;4.20;;;13.00;98.90;;;;;;5017046;28;20031;-61
2022/03/11 10:20:25;;;;;;;13.40;4.47;;;13.00;98.30;;;;;;5016523;28;20043;-61
2022/03/11 10:22:52;;;;;;;9.63;4.40;;;13.10;98.60;;;;;;5016614;28;20042;-61
2022/03/11 10:25:21;;;;;;;10.20;4.45;;;13.10;98.40;;;;;;5016209;28;20053;-61
2022/03/11 10:28:03;;;;;;;15.20;4.60;;;13.10;98.30;;;;;;5016371;28;20023;-61
2022/03/11 10:30:31;;;;;;;8.65;4.57;;;13.20;98.00;;;;;;5004563;28;20073;-60
2022/03/11 10:33:00;;;;;;;13.93;4.55;;;13.20;98.30;;;;;;5000004;28;20039;-59
2022/03/11 10:35:32;;;;;;;9.18;4.97;;;13.30;98.50;;;;;;5000168;28;20097;-59
2022/03/11 10:38:01;;;;;;;14.40;5.07;;;13.40;98.10;;;;;;5017085;28;20046;-60
2022/03/11 10:40:29;;;;;;;6.65;4.28;;;13.40;98.20;;;;;;5016800;28;20039;-60
2022/03/11 10:43:12;;;;;;;12.25;4.38;;;13.40;98.00;;;;;;5016012;28;20276;-60
2022/03/11 10:45:55;;;;;;;11.23;4.07;;;13.40;96.90;;;;;;5016755;28;20038;-60
2022/03/11 10:48:41;;;;;;;13.02;4.45;;;13.40;97.40;;;;;;5013246;28;20057;-61
2022/03/11 10:51:29;;;;;;;13.63;4.13;;;13.40;97.30;;;;;;5016414;28;20037;-60
2022/03/11 10:53:56;;;;;;;9.13;4.68;;;13.40;96.60;;;;;;5016801;28;20026;-60
2022/03/11 10:56:35;;;;;;;7.63;4.28;;;13.40;97.60;;;;;;5016248;28;20041;-59
2022/03/11 10:59:06;;;;;;;15.65;4.85;;;13.30;96.90;;;;;;5019444;28;20030;-61
2022/03/11 11:01:40;;;;;;;9.00;4.55;;;13.30;97.50;;;;;;5016564;28;20031;-61
2022/03/11 11:04:09;;;;;;;7.40;4.75;;;13.30;97.00;;;;;;5016425;28;20022;-61
2022/03/11 11:06:36;;;;;;;9.07;4.28;;;13.30;97.30;;;;;;5016766;28;20026;-61
2022/03/11 11:09:04;;;;;;;8.57;5.00;;;13.30;97.30;;;;;;5013234;28;20038;-60
2022/03/11 11:11:31;;;;;;;13.63;6.07;;;13.30;97.50;;;;;;5032240;28;20030;-60
2022/03/11 11:14:07;;;;;;;9.70;5.45;;;13.30;97.60;;;;;;5005089;28;20026;-60
2022/03/11 11:16:42;;;;;;;8.38;4.93;;;13.30;97.20;;;;;;5016331;28;20030;-60
2022/03/11 11:19:14;;;;;;;12.43;5.70;;;13.20;97.00;;;;;;5027181;28;20102;-60
2022/03/11 11:21:42;;;;;;;13.45;5.53;;;13.10;97.00;;;;;;5016275;28;20026;-60
2022/03/11 11:24:16;;;;;;;15.90;7.15;;;13.10;97.50;;;;;;5015366;28;20054;-60
2022/03/11 11:26:47;;;;;;;8.85;5.85;;;13.10;97.20;;;;;;5016675;28;20054;-60
2022/03/11 11:29:19;;;;;;;15.00;5.70;;;13.00;97.50;;;;;;4981177;28;20034;-59
2022/03/11 11:31:46;;;;;;;13.23;5.45;;;13.10;97.50;;;;;;4984035;28;20030;-62
2022/03/11 11:34:33;;;;;;;11.20;6.05;;;13.10;97.60;;;;;;4999553;28;20057;-61
2022/03/11 11:37:01;;;;;;;6.78;4.78;;;13.20;96.80;;;;;;4996296;28;20070;-60
2022/03/11 11:39:38;;;;;;;11.75;5.38;;;13.20;97.40;;;;;;5000838;28;20038;-61
2022/03/11 11:42:12;;;;;;;10.45;5.18;;;13.20;97.00;;;;;;4997277;28;20043;-61
2022/03/11 11:44:43;;;;;;;9.85;6.25;;;13.30;97.20;;;;;;4998968;28;20065;-61
2022/03/11 11:47:12;;;;;;;10.63;4.75;;;13.30;97.40;;;;;;5032193;28;20043;-60
2022/03/11 11:49:54;;;;;;;12.13;4.70;;;13.30;97.30;;;;;;5016040;28;20056;-61
2022/03/11 11:52:33;;;;;;;13.65;4.88;;;13.30;97.00;;;;;;5010031;28;20042;-61
2022/03/11 11:55:21;;;;;;;18.00;5.32;;;13.40;97.20;;;;;;5015812;28;20023;-62
2022/03/11 11:57:48;;;;;;;12.07;4.78;;;13.50;97.00;;;;;;5016123;28;20038;-61
2022/03/11 12:00:32;;;;;;;9.50;5.07;;;13.50;97.30;;;;;;5015599;28;20030;-61
2022/03/11 12:02:59;;;;;;;;;;;13.50;96.60;;;;;;5032031;28;20042;-60
2022/03/11 12:05:50;;;;;;;12.68;5.18;;;13.50;96.50;;;;;;5014628;28;20163;-61
2022/03/11 12:08:39;;;;;;;6.57;4.65;;;13.60;96.60;;;;;;5016479;28;20050;-60
2022/03/11 12:11:07;;;;;;;10.07;5.30;;;13.70;96.70;;;;;;5012156;28;20050;-62
2022/03/11 12:13:35;;;;;;;7.95;5.13;;;13.80;96.90;;;;;;5015730;28;20037;-61
2022/03/11 12:16:21;;;;;;;8.07;5.28;;;13.80;96.80;;;;;;5017992;28;20034;-61
2022/03/11 12:18:48;;;;;;;7.05;4.72;;;13.80;96.90;;;;;;5032724;28;20050;-59
2022/03/11 12:21:41;;;;;;;9.32;4.82;;;13.70;97.50;;;;;;5018955;28;20026;-60
2022/03/11 12:24:33;;;;;;;9.13;4.25;;;13.50;97.90;;;;;;5002762;28;20054;-60
2022/03/11 12:27:01;;;;;;;6.45;4.80;;;13.30;98.00;;;;;;5002540;28;20057;-61
2022/03/11 12:29:29;;;;;;;9.88;4.72;;;13.20;98.30;;;;;;5018522;28;20049;-61
2022/03/11 12:31:57;;;;;;;12.80;5.35;;;13.10;98.80;;;;;;5018921;28;20026;-59
2022/03/11 12:34:24;;;;;;;6.85;4.90;;;13.10;98.70;;;;;;5018898;28;20038;-59
2022/03/11 12:36:51;;;;;;;8.77;4.32;;;13.10;98.50;;;;;;4998138;28;20061;-60
2022/03/11 12:39:19;;;;;;;4.72;3.85;;;13.20;99.20;;;;;;5019459;28;20034;-61
2022/03/11 12:41:46;;;;;;;6.93;4.32;;;13.10;98.80;;;;;;5030089;28;20054;-61
2022/03/11 12:44:12;;;;;;;9.35;4.70;;;13.10;99.20;;;;;;5002690;28;20038;-60